createdAt,value
2019-03-29T08:59:02.143Z,13.40
2019-03-29T09:01:32.309Z,13.50
2019-03-29T09:04:05.713Z,13.50
2019-03-29T09:06:35.069Z,13.50
2019-03-29T09:09:07.076Z,13.50
2019-03-29T09:11:38.959Z,13.50
2019-03-29T09:14:09.155Z,13.50
2019-03-29T09:16:39.643Z,13.60
2019-03-29T09:19:10.312Z,13.70
2019-03-29T09:21:40.479Z,13.70
2019-03-29T09:24:21.100Z,13.70
2019-03-29T09:26:42.536Z,13.80
2019-03-29T09:29:12.818Z,13.90
2019-03-29T09:31:43.010Z,13.90
2019-03-29T09:34:13.948Z,14.00
2019-03-29T09:36:44.433Z,13.90
2019-03-29T09:39:14.622Z,13.90
2019-03-29T09:41:45.201Z,13.90
2019-03-29T09:44:15.700Z,13.90
2019-03-29T09:46:46.215Z,14.00
2019-03-29T09:49:16.405Z,13.90
2019-03-29T09:51:46.597Z,13.90
2019-03-29T09:54:20.124Z,13.90
2019-03-29T09:56:48.647Z,13.80
2019-03-29T09:59:18.798Z,13.80
2019-03-29T10:01:49.017Z,13.80
2019-03-29T10:04:19.192Z,13.80
2019-03-29T10:06:49.466Z,13.80
2019-03-29T10:09:20.032Z,13.80
2019-03-29T10:11:50.216Z,13.90
2019-03-29T10:14:20.395Z,13.90
2019-03-29T10:16:50.603Z,13.90
2019-03-29T10:19:20.850Z,13.90
2019-03-29T10:21:51.050Z,13.90
2019-03-29T10:24:21.232Z,13.90
2019-03-29T10:26:51.405Z,13.90
2019-03-29T10:29:21.621Z,14.00
2019-03-29T10:31:51.802Z,14.00
2019-03-29T10:34:22.152Z,14.20
2019-03-29T10:36:52.673Z,14.20
2019-03-29T10:39:26.154Z,14.30
2019-03-29T10:41:54.799Z,14.30
2019-03-29T10:44:24.996Z,14.30
2019-03-29T10:46:55.188Z,14.30
2019-03-29T10:49:25.376Z,14.40
2019-03-29T10:51:55.624Z,14.40
2019-03-29T10:54:25.816Z,14.50
2019-03-29T10:56:55.989Z,14.60
2019-03-29T10:59:27.816Z,14.60
2019-03-29T11:01:58.317Z,14.70
2019-03-29T11:04:31.690Z,14.80
2019-03-29T11:07:00.455Z,14.80
2019-03-29T11:09:30.606Z,14.70
2019-03-29T11:12:00.864Z,14.70
2019-03-29T11:14:31.156Z,14.70
2019-03-29T11:17:01.442Z,14.70
2019-03-29T11:19:31.888Z,14.70
2019-03-29T11:22:02.336Z,14.80
2019-03-29T11:24:32.508Z,14.80
2019-03-29T11:27:02.700Z,14.80
2019-03-29T11:29:33.180Z,14.80
2019-03-29T11:32:03.572Z,14.80
2019-03-29T11:37:03.231Z,15.00
2019-03-29T11:39:33.400Z,15.00
2019-03-29T11:42:03.903Z,15.00
2019-03-29T11:44:34.196Z,15.00
2019-03-29T11:47:04.788Z,15.00
2019-03-29T11:49:34.993Z,15.10
2019-03-29T11:52:05.369Z,15.10
2019-03-29T11:54:35.641Z,15.20
2019-03-29T11:57:05.876Z,15.20
2019-03-29T12:02:08.651Z,15.00
2019-03-29T12:04:38.945Z,15.00
2019-03-29T12:07:09.130Z,15.10
2019-03-29T12:09:39.328Z,15.20
2019-03-29T12:12:10.649Z,15.30
2019-03-29T12:14:40.897Z,15.30
2019-03-29T12:17:11.267Z,15.30
2019-03-29T12:19:41.482Z,15.40
2019-03-29T12:22:11.739Z,15.40
2019-03-29T12:24:41.921Z,15.50
2019-03-29T12:27:12.108Z,15.50
2019-03-29T12:29:42.287Z,15.60
2019-03-29T12:32:12.476Z,15.60
2019-03-29T12:34:42.681Z,15.60
2019-03-29T12:37:13.402Z,15.70
2019-03-29T12:39:43.568Z,15.70
2019-03-29T12:42:15.381Z,15.70
2019-03-29T12:47:14.954Z,15.70
2019-03-29T12:49:45.144Z,15.60
2019-03-29T12:52:15.408Z,15.60
2019-03-29T12:54:45.671Z,15.60
2019-03-29T12:57:15.972Z,15.70
2019-03-29T12:59:46.197Z,15.70
2019-03-29T13:02:18.144Z,15.60
2019-03-29T13:04:49.654Z,15.50
2019-03-29T13:07:19.808Z,15.60
2019-03-29T13:09:50.089Z,15.60
2019-03-29T13:12:21.316Z,15.60
2019-03-29T13:14:51.573Z,15.70
2019-03-29T13:17:22.041Z,15.70
2019-03-29T13:19:52.218Z,15.70
2019-03-29T13:22:22.432Z,15.80
2019-03-29T13:24:52.616Z,15.80
2019-03-29T13:27:22.798Z,15.90
2019-03-29T13:29:52.985Z,15.90
2019-03-29T13:32:23.145Z,15.80
2019-03-29T13:34:53.369Z,15.90
2019-03-29T13:37:23.552Z,15.90
2019-03-29T13:39:53.748Z,15.90
2019-03-29T13:42:23.929Z,16.00
2019-03-29T13:44:54.128Z,16.00
2019-03-29T13:47:24.365Z,16.10
2019-03-29T13:49:54.611Z,16.20
2019-03-29T13:52:24.816Z,16.20
2019-03-29T19:21:44.240Z,13.60
2019-03-29T19:24:14.727Z,13.60
2019-03-29T19:26:45.185Z,13.40
2019-03-29T19:29:15.455Z,13.30
2019-03-29T19:31:46.166Z,13.30
2019-03-29T19:34:16.512Z,13.30
2019-03-29T19:36:46.721Z,13.30
2019-03-29T19:39:16.956Z,13.30
2019-03-29T19:41:47.396Z,13.20
2019-03-29T19:44:17.606Z,13.10
2019-03-29T19:46:48.760Z,13.00
2019-03-29T19:49:19.024Z,13.00
2019-03-29T19:51:49.200Z,13.00
2019-03-29T19:54:19.487Z,13.00
2019-03-29T19:56:50.190Z,13.00
2019-03-29T19:59:20.408Z,12.90
2019-03-29T20:01:50.624Z,12.90
2019-03-29T20:04:20.815Z,12.90
2019-03-29T20:06:50.975Z,12.90
2019-03-29T20:09:21.562Z,12.80
2019-03-29T20:11:51.848Z,12.80
2019-03-29T20:14:22.249Z,12.80
2019-03-29T20:16:55.097Z,12.70
2019-03-29T20:19:24.624Z,12.80
2019-03-29T20:21:54.901Z,12.80
2019-03-29T20:24:25.113Z,12.90
2019-03-29T20:26:55.716Z,12.90
2019-03-29T20:29:26.272Z,12.90
2019-03-29T20:31:56.466Z,12.90
2019-03-29T20:34:26.639Z,12.80
2019-03-29T20:36:56.841Z,12.80
2019-03-29T20:39:27.093Z,12.70
2019-03-29T20:41:57.286Z,12.70
2019-03-29T20:44:27.484Z,12.60
2019-03-29T20:46:57.654Z,12.60
2019-03-29T20:49:27.839Z,12.60
2019-03-29T20:51:57.997Z,12.50
2019-03-29T20:54:28.210Z,12.50
2019-03-29T20:56:58.356Z,12.40
2019-03-29T20:59:28.883Z,12.30
2019-03-29T21:01:59.127Z,12.10
2019-03-29T21:04:29.462Z,12.10
2019-03-29T21:06:59.675Z,12.00
2019-03-29T21:09:30.247Z,12.00
2019-03-29T21:12:00.804Z,12.00
2019-03-29T21:14:30.997Z,12.00
2019-03-29T21:17:01.277Z,12.00
2019-03-29T21:19:31.502Z,12.10
2019-03-29T21:22:01.739Z,12.10
2019-03-29T21:24:31.990Z,12.20
2019-03-29T21:27:02.158Z,12.20
2019-03-29T21:29:32.368Z,12.10
2019-03-29T21:32:02.533Z,11.90
2019-03-29T21:34:32.720Z,11.90
2019-03-29T21:37:02.901Z,11.90
2019-03-29T21:39:33.080Z,11.90
2019-03-29T21:42:03.502Z,11.90
2019-03-29T21:44:33.711Z,11.90
2019-03-29T21:47:03.924Z,11.80
2019-03-29T21:49:34.119Z,11.70
2019-03-29T21:52:04.629Z,11.70
2019-03-29T21:54:34.834Z,11.70
2019-03-29T21:57:05.036Z,11.70
2019-03-29T21:59:35.235Z,11.70
2019-03-29T22:02:05.440Z,11.60
2019-03-29T22:04:35.628Z,11.70
2019-03-29T22:07:05.797Z,11.70
2019-03-29T22:09:37.151Z,11.60
2019-03-29T22:12:07.796Z,11.60
2019-03-29T22:14:38.001Z,11.70
2019-03-29T22:17:08.203Z,11.50
2019-03-29T22:19:38.398Z,11.50
2019-03-29T22:22:08.602Z,11.40
2019-03-29T22:24:38.762Z,11.30
2019-03-29T22:27:08.948Z,11.40
2019-03-29T22:29:39.171Z,11.40
2019-03-29T22:32:09.464Z,11.50
2019-03-29T22:34:39.656Z,11.50
2019-03-29T22:37:10.783Z,11.50
2019-03-29T22:39:42.029Z,11.50
2019-03-29T22:42:12.200Z,11.40
2019-03-29T22:44:42.398Z,11.40
2019-03-29T22:47:12.625Z,11.40
2019-03-29T22:49:42.811Z,11.40
2019-03-29T22:52:13.030Z,11.30
2019-03-29T22:54:43.295Z,11.40
2019-03-29T22:57:13.521Z,11.30
2019-03-29T22:59:43.702Z,11.30
2019-03-29T23:02:14.640Z,11.30
2019-03-29T23:04:44.821Z,11.20
2019-03-29T23:07:15.028Z,11.10
2019-03-29T23:09:45.335Z,11.10
2019-03-29T23:12:15.690Z,11.10
2019-03-29T23:14:45.989Z,11.10
2019-03-29T23:17:16.313Z,11.10
2019-03-29T23:19:46.528Z,10.90
2019-03-29T23:22:16.696Z,10.90
2019-03-29T23:24:47.189Z,10.90
2019-03-29T23:27:17.594Z,10.90
2019-03-29T23:29:47.762Z,10.90
2019-03-29T23:32:18.013Z,10.80
2019-03-29T23:34:48.188Z,10.80
2019-03-29T23:37:18.371Z,10.70
2019-03-29T23:39:48.520Z,10.70
2019-03-29T23:42:18.729Z,10.70
2019-03-29T23:44:48.924Z,10.60
2019-03-29T23:47:19.480Z,10.60
2019-03-29T23:49:49.716Z,10.60
2019-03-29T23:52:19.913Z,10.60
2019-03-29T23:54:50.064Z,10.70
2019-03-29T23:57:20.269Z,10.70
2019-03-29T23:59:50.455Z,10.60
